CheckWX is a tool to help pilots better visualize weather data.  It is not intended as a substitute for an official pre-flight weather briefing.

08:00:09 UTC

DAUL METAR
Laghouat Airport
Laghouat, Algeria
Current

60 mins ago

DAUL 050700Z 00000KT CAVOK 25/09 Q1022
Observed
Jul-5 @ 07:00 UTC
Visibility
10,000+ meters
Flight Rules
VFR
Cloud Levels
  • Clear skies
Temperature
25°C / 77°F
Dewpoint
C / 48°F
Humidity
36%
Altimeter
30.18" Hg
Pressure
1021.92 hPa
Previous

2 hours ago

DAUL 050600Z 00000KT CAVOK 22/10 Q1021
Observed
Jul-5 @ 06:00 UTC
Visibility
10,000+ meters
Flight Rules
VFR
Cloud Levels
  • Clear skies
Temperature
22°C / 72°F
Dewpoint
10°C / 50°F
Humidity
47%
Altimeter
30.15" Hg
Pressure
1020.92 hPa
Previous

3 hours ago

DAUL 050500Z 00000KT CAVOK 22/06 Q1021
Observed
Jul-5 @ 05:00 UTC
Visibility
10,000+ meters
Flight Rules
VFR
Cloud Levels
  • Clear skies
Temperature
22°C / 72°F
Dewpoint
C / 43°F
Humidity
36%
Altimeter
30.15" Hg
Pressure
1020.92 hPa